Lena, Mississippi
Current Conditions -  °F | °C
As of 1:54 AM on Monday 22 Dec 2014 (Local Time) from KJAN Reporting Station
Haze Haze  
Wind Chill: 51°   Ceiling: 400
Heat Index: 51°   Visibility: 4mi
Dew Point: 50°   Wind: 10mph
Humidity: 96%   Direction: 140°SE
Pressure: 29.9"   Gusts: NA
Location:  32.59°N, 89.61°W
Report Text: KJAN 220754Z AUTO 14009KT 4SM BR OVC004 11/10 A2990 RMK AO2 SLP124 T01060100
Loading
Personal Weather Stations






























Interactive Weather Map New forecast layout! Learn more

10-Day Weather Forecast

Advertisements
Track Severe Weather on mobile